createdAt,value
2022-08-02T00:01:37.121Z,21.80
2022-08-02T00:04:09.070Z,21.80
2022-08-02T00:06:40.882Z,21.90
2022-08-02T00:09:12.813Z,21.80
2022-08-02T00:11:44.633Z,21.80
2022-08-02T00:14:16.363Z,21.80
2022-08-02T00:16:48.317Z,21.60
2022-08-02T00:19:20.078Z,21.60
2022-08-02T00:21:51.824Z,21.60
2022-08-02T00:24:30.822Z,21.50
2022-08-02T00:27:03.900Z,21.60
2022-08-02T00:29:42.683Z,21.60
2022-08-02T00:32:26.278Z,21.60
2022-08-02T00:34:58.199Z,21.60
2022-08-02T00:37:29.940Z,21.60
2022-08-02T00:40:03.100Z,21.60
2022-08-02T00:42:34.836Z,21.50
2022-08-02T00:45:07.612Z,21.50
2022-08-02T00:47:39.343Z,21.40
2022-08-02T00:50:11.221Z,21.30
2022-08-02T00:52:42.953Z,21.30
2022-08-02T00:55:17.513Z,21.20
2022-08-02T00:57:55.574Z,21.20
2022-08-02T01:00:29.979Z,21.20
2022-08-02T01:03:01.876Z,21.20
2022-08-02T01:05:46.955Z,21.30
2022-08-02T01:08:29.642Z,21.20
2022-08-02T01:11:03.707Z,21.20
2022-08-02T01:13:35.719Z,21.10
2022-08-02T01:16:19.785Z,21.10
2022-08-02T01:18:59.792Z,21.00
2022-08-02T01:21:49.746Z,21.10
2022-08-02T01:24:35.345Z,21.00
2022-08-02T01:27:50.715Z,20.80
2022-08-02T01:30:22.727Z,20.70
2022-08-02T01:33:00.032Z,20.50
2022-08-02T01:35:47.237Z,20.40
2022-08-02T01:38:38.855Z,20.30
2022-08-02T01:41:19.489Z,20.20
2022-08-02T01:43:55.422Z,20.10
2022-08-02T01:46:28.975Z,20.10
2022-08-02T01:49:09.537Z,20.10
2022-08-02T01:52:02.059Z,20.20
2022-08-02T01:54:36.396Z,20.30
2022-08-02T01:57:11.493Z,20.10
2022-08-02T01:59:45.614Z,20.00
2022-08-02T02:02:20.605Z,19.90
2022-08-02T02:04:55.843Z,20.00
2022-08-02T02:07:30.223Z,20.00
2022-08-02T02:10:04.075Z,20.00
2022-08-02T02:12:38.258Z,20.00
2022-08-02T02:15:12.724Z,20.00
2022-08-02T02:17:52.922Z,20.00
2022-08-02T02:20:38.133Z,19.80
2022-08-02T02:23:11.384Z,19.70
2022-08-02T02:25:47.201Z,19.50
2022-08-02T02:28:30.684Z,19.50
2022-08-02T02:31:07.891Z,19.40
2022-08-02T02:33:44.761Z,19.30
2022-08-02T02:36:18.895Z,19.30
2022-08-02T02:38:52.822Z,19.30
2022-08-02T02:41:26.977Z,19.40
2022-08-02T02:44:03.776Z,19.40
2022-08-02T02:46:36.764Z,19.40
2022-08-02T02:49:12.219Z,19.40
2022-08-02T02:51:45.354Z,19.40
2022-08-02T02:54:32.532Z,19.50
2022-08-02T02:57:07.853Z,19.50
2022-08-02T02:59:49.019Z,19.30
2022-08-02T03:02:21.762Z,19.10
2022-08-02T03:04:57.734Z,19.00
2022-08-02T03:07:30.119Z,18.90
2022-08-02T03:10:04.066Z,18.80
2022-08-02T03:12:36.529Z,18.60
2022-08-02T03:15:12.835Z,18.70
2022-08-02T03:17:46.240Z,18.70
2022-08-02T03:20:20.410Z,18.80
2022-08-02T03:22:52.229Z,18.90
2022-08-02T03:25:23.992Z,18.90
2022-08-02T03:27:55.728Z,18.90
2022-08-02T03:30:27.734Z,18.90
2022-08-02T03:32:59.575Z,18.80
2022-08-02T03:35:31.552Z,18.90
2022-08-02T03:38:05.510Z,18.80
2022-08-02T03:40:38.172Z,18.80
2022-08-02T03:43:11.068Z,18.70
2022-08-02T03:45:47.702Z,18.70
2022-08-02T03:48:33.897Z,18.70
2022-08-02T03:51:08.043Z,18.70
2022-08-02T03:53:40.346Z,18.80
2022-08-02T03:56:12.827Z,18.80
2022-08-02T03:58:49.083Z,18.80
2022-08-02T04:01:21.248Z,18.60
2022-08-02T04:03:53.167Z,18.50
2022-08-02T04:06:27.250Z,18.40
2022-08-02T04:09:00.266Z,18.30
2022-08-02T04:11:32.056Z,18.20
2022-08-02T04:14:09.917Z,18.30
2022-08-02T04:16:45.596Z,18.30
2022-08-02T04:19:25.680Z,18.40
2022-08-02T04:21:59.820Z,18.40
2022-08-02T04:24:37.383Z,18.40
2022-08-02T04:27:49.218Z,18.40
2022-08-02T04:30:04.927Z,18.40
2022-08-02T04:32:37.485Z,18.50
2022-08-02T04:35:24.750Z,18.60
2022-08-02T04:38:08.232Z,18.80
2022-08-02T04:40:50.667Z,19.00
2022-08-02T04:43:23.808Z,19.10
2022-08-02T04:45:55.702Z,19.40
2022-08-02T04:48:27.456Z,20.40
2022-08-02T04:50:59.603Z,21.80
2022-08-02T04:53:31.338Z,23.40
2022-08-02T04:56:03.181Z,24.80
2022-08-02T04:58:40.506Z,26.00
2022-08-02T05:01:12.757Z,26.90
2022-08-02T05:03:44.602Z,27.50
2022-08-02T05:06:22.250Z,28.10
2022-08-02T05:08:54.026Z,28.30
2022-08-02T05:11:36.161Z,28.40
2022-08-02T05:14:08.611Z,28.30
2022-08-02T05:16:40.326Z,28.10
2022-08-02T05:19:12.106Z,27.80
2022-08-02T05:21:43.846Z,27.50
2022-08-02T05:24:15.610Z,27.40
2022-08-02T05:26:47.339Z,27.10
2022-08-02T05:29:19.137Z,26.70
2022-08-02T05:31:50.943Z,26.80
2022-08-02T05:34:22.840Z,26.90
2022-08-02T05:36:54.528Z,26.90
2022-08-02T05:39:27.210Z,26.90
2022-08-02T05:42:03.931Z,26.80
2022-08-02T05:44:35.693Z,26.70
2022-08-02T05:47:07.421Z,26.60
2022-08-02T05:49:39.248Z,26.60
2022-08-02T05:52:15.939Z,26.50
2022-08-02T05:55:10.011Z,26.60
2022-08-02T05:58:07.854Z,26.80
2022-08-02T06:00:41.908Z,27.00
2022-08-02T06:03:26.792Z,27.20
2022-08-02T06:06:16.163Z,27.10
2022-08-02T06:08:51.103Z,26.70
2022-08-02T06:11:24.794Z,26.30
2022-08-02T06:13:56.828Z,26.20
2022-08-02T06:16:31.821Z,26.40
2022-08-02T06:19:05.482Z,26.50
2022-08-02T06:22:42.030Z,26.60
2022-08-02T06:24:34.409Z,26.60
2022-08-02T06:27:06.484Z,26.40
2022-08-02T06:29:39.687Z,26.40
2022-08-02T06:32:11.750Z,26.50
2022-08-02T06:34:44.019Z,26.50
2022-08-02T06:37:27.986Z,26.50
2022-08-02T06:40:04.128Z,26.70
2022-08-02T06:42:58.158Z,26.80
2022-08-02T06:45:29.958Z,27.10
2022-08-02T06:48:02.113Z,27.00
2022-08-02T06:50:34.471Z,27.20
2022-08-02T06:53:06.808Z,26.90
2022-08-02T06:55:44.052Z,26.70
2022-08-02T06:58:16.128Z,26.60
2022-08-02T07:00:48.200Z,26.60
2022-08-02T07:03:20.299Z,26.80
2022-08-02T07:05:55.037Z,26.90
2022-08-02T07:08:31.659Z,27.00
2022-08-02T07:11:05.451Z,27.10
2022-08-02T07:13:39.905Z,27.30
2022-08-02T07:16:11.775Z,26.80
2022-08-02T07:18:43.545Z,26.40
2022-08-02T07:21:15.296Z,26.30
2022-08-02T07:23:47.822Z,26.30
2022-08-02T07:26:19.542Z,26.30
2022-08-02T07:28:51.276Z,26.20
2022-08-02T07:31:23.031Z,26.10
2022-08-02T07:33:54.768Z,26.20
2022-08-02T07:36:26.673Z,26.50
2022-08-02T07:38:58.539Z,26.70
2022-08-02T07:41:30.844Z,26.90
2022-08-02T07:44:02.602Z,26.90
2022-08-02T07:46:34.376Z,27.00
2022-08-02T07:49:06.131Z,26.80
2022-08-02T07:51:37.906Z,27.10
2022-08-02T07:54:10.244Z,27.30
2022-08-02T07:56:43.265Z,27.30
2022-08-02T07:59:14.979Z,27.40
2022-08-02T08:01:47.220Z,27.50
2022-08-02T08:04:20.009Z,27.60
2022-08-02T08:06:54.497Z,27.70
2022-08-02T08:09:26.289Z,27.50
2022-08-02T08:11:58.066Z,27.50
2022-08-02T08:14:29.843Z,27.60
2022-08-02T08:17:01.664Z,27.60
2022-08-02T08:19:50.554Z,27.60
2022-08-02T08:22:23.572Z,27.50
2022-08-02T08:24:55.324Z,27.50
2022-08-02T08:27:27.034Z,27.50
2022-08-02T08:29:58.813Z,27.50
2022-08-02T08:32:30.644Z,27.60
2022-08-02T08:35:03.995Z,27.70
2022-08-02T08:37:36.658Z,27.90
2022-08-02T08:40:10.497Z,28.00
2022-08-02T08:42:42.292Z,28.10
2022-08-02T08:45:14.040Z,28.20
2022-08-02T08:47:52.113Z,28.20
2022-08-02T08:50:26.143Z,28.20
2022-08-02T08:53:05.953Z,28.40
2022-08-02T08:55:37.869Z,28.40
2022-08-02T08:58:10.006Z,28.60
2022-08-02T09:00:41.846Z,28.80
2022-08-02T09:03:13.684Z,28.70
2022-08-02T09:05:47.031Z,28.60
2022-08-02T09:08:18.987Z,28.70
2022-08-02T09:10:51.145Z,28.90
2022-08-02T09:13:38.534Z,28.90
2022-08-02T09:16:32.460Z,28.70
2022-08-02T09:19:20.137Z,28.90
2022-08-02T09:22:00.851Z,29.20
2022-08-02T09:24:48.600Z,29.30
2022-08-02T09:27:22.728Z,29.40
2022-08-02T09:30:11.972Z,29.40
2022-08-02T09:32:46.501Z,29.40
2022-08-02T09:36:06.161Z,29.40
2022-08-02T09:38:28.300Z,29.50
2022-08-02T09:41:00.550Z,29.70
2022-08-02T09:44:03.413Z,29.70
2022-08-02T09:46:40.586Z,29.80
2022-08-02T09:49:18.461Z,29.80
2022-08-02T09:51:52.800Z,29.80
2022-08-02T09:54:28.593Z,29.50
2022-08-02T09:57:02.095Z,29.30
2022-08-02T09:59:34.107Z,29.10
2022-08-02T10:02:17.691Z,29.30
2022-08-02T10:04:53.263Z,29.50
2022-08-02T10:07:26.067Z,29.60
2022-08-02T10:09:58.204Z,29.80
2022-08-02T10:12:30.346Z,29.90
2022-08-02T10:15:02.624Z,29.50
2022-08-02T10:17:36.256Z,29.30
2022-08-02T10:20:08.600Z,29.30
2022-08-02T10:22:41.237Z,29.40
2022-08-02T10:25:13.685Z,29.70
2022-08-02T10:28:04.727Z,30.10
2022-08-02T10:30:39.741Z,30.00
2022-08-02T10:33:13.072Z,30.10
2022-08-02T10:35:47.612Z,30.20
2022-08-02T10:38:37.252Z,29.80
2022-08-02T10:41:09.069Z,29.60
2022-08-02T10:43:43.228Z,29.50
2022-08-02T10:46:22.447Z,29.60
2022-08-02T10:49:29.742Z,29.70
2022-08-02T10:52:02.662Z,29.50
2022-08-02T10:54:37.384Z,29.10
2022-08-02T10:57:18.159Z,29.00
2022-08-02T10:59:52.659Z,28.90
2022-08-02T11:02:39.487Z,28.90
2022-08-02T11:05:26.939Z,28.90
2022-08-02T11:07:58.816Z,28.90
2022-08-02T11:10:36.966Z,29.20
2022-08-02T11:13:11.830Z,29.30
2022-08-02T11:16:11.568Z,29.30
2022-08-02T11:18:52.431Z,29.00
2022-08-02T11:21:26.265Z,28.90
2022-08-02T11:24:26.745Z,28.90
2022-08-02T11:27:01.071Z,28.90
2022-08-02T11:29:38.261Z,29.10
2022-08-02T11:32:22.540Z,29.00
2022-08-02T11:35:03.925Z,29.20
2022-08-02T11:37:39.238Z,29.60
2022-08-02T11:40:19.647Z,29.80
2022-08-02T11:42:53.607Z,30.00
2022-08-02T11:49:37.426Z,30.20
2022-08-02T11:52:11.070Z,30.50
2022-08-02T11:54:43.926Z,30.50
2022-08-02T11:57:21.890Z,30.50
2022-08-02T11:59:55.809Z,30.60
2022-08-02T12:02:30.179Z,30.70
2022-08-02T12:05:05.061Z,30.80
2022-08-02T12:07:46.196Z,30.80
2022-08-02T12:10:20.838Z,30.80
2022-08-02T12:13:00.821Z,30.70
2022-08-02T12:15:37.369Z,30.90
2022-08-02T12:18:47.179Z,31.00
2022-08-02T12:21:24.754Z,31.00
2022-08-02T12:23:59.386Z,30.70
2022-08-02T12:26:45.267Z,30.50
2022-08-02T12:29:17.033Z,30.20
2022-08-02T12:32:10.238Z,29.90
2022-08-02T12:34:42.274Z,29.80
2022-08-02T12:37:14.166Z,29.70
2022-08-02T12:39:49.897Z,29.70
2022-08-02T12:42:21.655Z,29.80
2022-08-02T12:44:55.613Z,30.10
2022-08-02T12:47:35.825Z,30.50
2022-08-02T12:50:17.368Z,30.70
2022-08-02T12:52:49.591Z,31.00
2022-08-02T12:55:25.786Z,31.10
2022-08-02T12:58:17.994Z,30.90
2022-08-02T13:01:07.745Z,30.70
2022-08-02T13:04:08.959Z,30.70
2022-08-02T13:06:40.984Z,30.70
2022-08-02T13:09:17.238Z,30.80
2022-08-02T13:11:49.269Z,31.00
2022-08-02T13:14:21.062Z,31.10
2022-08-02T13:16:52.777Z,29.60
2022-08-02T13:19:24.642Z,31.30
2022-08-02T13:22:01.184Z,31.30
2022-08-02T13:24:55.836Z,31.40
2022-08-02T13:27:28.990Z,31.50
2022-08-02T13:30:01.508Z,31.50
2022-08-02T13:32:33.320Z,31.40
2022-08-02T13:35:05.415Z,31.40
2022-08-02T13:37:38.758Z,31.40
2022-08-02T13:40:21.735Z,31.40
2022-08-02T13:42:54.237Z,31.20
2022-08-02T13:45:26.693Z,31.20
2022-08-02T13:48:05.171Z,31.10
2022-08-02T13:50:48.683Z,31.10
2022-08-02T13:53:20.478Z,30.90
2022-08-02T13:55:56.289Z,31.00
2022-08-02T13:58:28.194Z,31.30
2022-08-02T14:01:00.096Z,31.50
2022-08-02T14:04:07.374Z,31.50
2022-08-02T14:07:16.452Z,31.50
2022-08-02T14:09:48.366Z,31.20
2022-08-02T14:12:20.125Z,30.80
2022-08-02T14:14:51.849Z,30.80
2022-08-02T14:17:23.570Z,30.90
2022-08-02T14:19:55.327Z,31.10
2022-08-02T14:22:28.655Z,31.50
2022-08-02T14:25:09.040Z,31.70
2022-08-02T14:27:41.269Z,31.90
2022-08-02T14:30:13.645Z,32.00
2022-08-02T14:32:45.478Z,32.00
2022-08-02T14:35:17.307Z,32.00
2022-08-02T14:37:49.057Z,32.20
2022-08-02T14:40:31.275Z,32.30
2022-08-02T14:43:04.313Z,32.30
2022-08-02T14:45:39.741Z,32.20
2022-08-02T14:48:12.944Z,32.20
2022-08-02T14:50:44.774Z,32.30
2022-08-02T14:53:16.803Z,32.40
2022-08-02T14:55:49.538Z,32.20
2022-08-02T14:58:21.274Z,32.30
2022-08-02T15:00:53.031Z,32.10
2022-08-02T15:03:25.215Z,32.00
2022-08-02T15:05:57.272Z,32.20
2022-08-02T15:08:28.990Z,32.30
2022-08-02T15:11:00.760Z,32.40
2022-08-02T15:13:32.572Z,32.50
2022-08-02T15:16:04.550Z,32.60
2022-08-02T15:18:36.467Z,32.50
2022-08-02T15:21:40.295Z,32.60
2022-08-02T15:23:59.973Z,32.70
2022-08-02T15:26:31.819Z,32.70
2022-08-02T15:29:06.351Z,32.60
2022-08-02T15:31:41.726Z,32.30
2022-08-02T15:34:13.841Z,32.10
2022-08-02T15:36:50.431Z,32.10
2022-08-02T15:39:22.167Z,32.00
2022-08-02T15:41:53.905Z,31.70
2022-08-02T15:44:25.677Z,31.60
2022-08-02T15:46:57.555Z,31.50
2022-08-02T15:49:29.415Z,31.40
2022-08-02T15:52:01.178Z,31.30
2022-08-02T15:54:33.075Z,31.10
2022-08-02T15:57:05.066Z,31.10
2022-08-02T15:59:36.875Z,31.00
2022-08-02T16:02:08.699Z,30.80
2022-08-02T16:04:40.494Z,29.40
2022-08-02T16:07:12.379Z,30.60
2022-08-02T16:09:44.366Z,30.50
2022-08-02T16:12:16.438Z,30.40
2022-08-02T16:14:52.471Z,30.40
2022-08-02T16:22:13.034Z,30.30
2022-08-02T16:24:45.092Z,30.30
2022-08-02T16:27:16.983Z,30.30
2022-08-02T16:30:14.302Z,30.30
2022-08-02T16:32:46.036Z,30.50
2022-08-02T16:35:17.893Z,30.70
2022-08-02T16:37:52.003Z,30.80
2022-08-02T16:40:24.415Z,30.80
2022-08-02T16:42:56.276Z,30.70
2022-08-02T16:45:29.698Z,30.60
2022-08-02T16:48:05.459Z,30.50
2022-08-02T16:50:37.914Z,30.40
2022-08-02T16:53:11.346Z,30.20
2022-08-02T16:55:51.527Z,30.10
2022-08-02T16:58:24.886Z,30.00
2022-08-02T17:00:56.870Z,29.80
2022-08-02T17:06:36.847Z,29.60
2022-08-02T17:09:08.576Z,29.60
2022-08-02T17:11:45.450Z,29.50
2022-08-02T17:14:20.227Z,29.40
2022-08-02T17:16:52.113Z,29.30
2022-08-02T17:19:23.839Z,29.30
2022-08-02T17:21:55.564Z,29.20
2022-08-02T17:24:29.413Z,29.20
2022-08-02T17:27:01.358Z,29.10
2022-08-02T17:29:33.227Z,29.10
2022-08-02T17:32:09.283Z,29.00
2022-08-02T17:34:56.671Z,29.10
2022-08-02T17:37:32.802Z,29.20
2022-08-02T17:40:08.054Z,29.10
2022-08-02T17:42:41.554Z,29.10
2022-08-02T17:45:24.876Z,29.10
2022-08-02T17:48:04.288Z,29.00
2022-08-02T17:50:49.506Z,29.00
2022-08-02T17:53:24.586Z,28.90
2022-08-02T17:56:08.542Z,28.90
2022-08-02T17:58:51.821Z,28.80
2022-08-02T18:01:25.711Z,28.80
2022-08-02T18:03:57.819Z,28.70
2022-08-02T18:06:29.887Z,28.80
2022-08-02T18:09:02.029Z,28.50
2022-08-02T18:11:53.056Z,28.50
2022-08-02T18:14:26.396Z,28.40
2022-08-02T18:16:58.714Z,28.40
2022-08-02T18:19:42.788Z,28.30
2022-08-02T18:22:24.843Z,28.20
2022-08-02T18:24:58.200Z,28.10
2022-08-02T18:27:29.983Z,28.00
2022-08-02T18:33:59.633Z,27.90
2022-08-02T18:35:47.289Z,27.80
2022-08-02T18:38:19.140Z,27.70
2022-08-02T18:40:52.088Z,27.60
2022-08-02T18:43:25.550Z,27.50
2022-08-02T18:46:07.378Z,27.40
2022-08-02T18:48:47.860Z,27.30
2022-08-02T18:51:20.044Z,27.20
2022-08-02T18:53:53.842Z,27.10
2022-08-02T18:56:25.776Z,27.00
2022-08-02T18:58:58.584Z,27.00
2022-08-02T19:01:33.423Z,26.40
2022-08-02T19:07:07.380Z,26.80
2022-08-02T19:09:39.997Z,26.70
2022-08-02T19:12:12.651Z,26.60
2022-08-02T19:14:44.613Z,26.50
2022-08-02T19:17:55.288Z,26.50
2022-08-02T19:20:09.223Z,26.40
2022-08-02T19:22:41.337Z,26.30
2022-08-02T19:25:14.170Z,26.20
2022-08-02T19:27:47.881Z,26.00
2022-08-02T19:30:22.160Z,26.00
2022-08-02T19:32:59.863Z,25.90
2022-08-02T19:35:34.368Z,25.80
2022-08-02T19:38:09.381Z,25.60
2022-08-02T19:40:43.987Z,25.50
2022-08-02T19:44:25.538Z,25.40
2022-08-02T19:50:01.927Z,25.20
2022-08-02T19:56:25.930Z,25.10
2022-08-02T19:58:58.008Z,25.20
2022-08-02T20:05:36.735Z,25.10
2022-08-02T20:08:08.470Z,25.00
2022-08-02T20:14:58.575Z,24.90
2022-08-02T20:17:31.574Z,24.80
2022-08-02T20:20:04.211Z,24.70
2022-08-02T20:22:54.522Z,24.70
2022-08-02T20:25:26.397Z,24.60
2022-08-02T20:28:00.851Z,24.70
2022-08-02T20:30:32.680Z,24.60
2022-08-02T20:33:21.965Z,24.60
2022-08-02T20:35:54.328Z,24.60
2022-08-02T20:38:29.845Z,24.50
2022-08-02T20:41:03.903Z,24.50
2022-08-02T20:43:35.855Z,24.40
2022-08-02T20:46:07.603Z,24.40
2022-08-02T20:48:40.315Z,24.40
2022-08-02T20:51:12.791Z,24.30
2022-08-02T20:53:56.336Z,24.20
2022-08-02T20:56:28.251Z,24.20
2022-08-02T20:59:04.138Z,24.10
2022-08-02T21:01:57.122Z,24.00
2022-08-02T21:04:29.462Z,23.90
2022-08-02T21:07:01.203Z,23.80
2022-08-02T21:09:53.948Z,23.80
2022-08-02T21:12:30.213Z,23.70
2022-08-02T21:15:02.346Z,23.60
2022-08-02T21:17:44.183Z,23.70
2022-08-02T21:20:27.460Z,23.60
2022-08-02T21:23:00.991Z,23.50
2022-08-02T21:25:42.703Z,23.40
2022-08-02T21:28:24.903Z,23.40
2022-08-02T21:31:16.046Z,23.40
2022-08-02T21:33:58.724Z,23.30
2022-08-02T21:36:33.207Z,23.30
2022-08-02T21:39:09.028Z,23.20
2022-08-02T21:41:46.867Z,23.20
2022-08-02T21:44:20.344Z,23.10
2022-08-02T21:46:54.736Z,23.10
2022-08-02T21:50:08.708Z,23.10
2022-08-02T21:52:20.342Z,23.00
2022-08-02T21:54:57.748Z,23.00
2022-08-02T21:57:34.777Z,23.00
2022-08-02T22:00:10.996Z,23.00
2022-08-02T22:02:42.823Z,23.00
2022-08-02T22:05:14.562Z,23.00
2022-08-02T22:07:46.313Z,23.00
2022-08-02T22:10:22.397Z,22.90
2022-08-02T22:12:54.137Z,22.90
2022-08-02T22:15:36.077Z,22.90
2022-08-02T22:18:14.339Z,22.80
2022-08-02T22:20:46.330Z,22.80
2022-08-02T22:23:22.635Z,22.70
2022-08-02T22:26:12.397Z,22.60
2022-08-02T22:28:51.183Z,22.60
2022-08-02T22:31:41.723Z,22.60
2022-08-02T22:34:36.678Z,22.50
2022-08-02T22:37:07.550Z,22.50
2022-08-02T22:40:05.852Z,22.50
2022-08-02T22:42:31.199Z,22.40
2022-08-02T22:45:03.084Z,22.40
2022-08-02T22:47:38.638Z,22.30
2022-08-02T22:50:11.875Z,22.40
2022-08-02T22:52:46.837Z,22.40
2022-08-02T22:55:22.920Z,22.30
2022-08-02T22:57:56.543Z,22.30
2022-08-02T22:58:50.120Z,29.60
2022-08-02T22:58:58.898Z,27.90
2022-08-02T22:59:00.572Z,26.80
2022-08-02T23:00:29.060Z,22.30
2022-08-02T23:03:00.807Z,22.30
2022-08-02T23:05:32.592Z,22.30
2022-08-02T23:08:04.810Z,22.30
2022-08-02T23:10:37.187Z,22.30
2022-08-02T23:13:08.933Z,22.30
2022-08-02T23:16:01.821Z,22.30
2022-08-02T23:18:52.303Z,22.30
2022-08-02T23:21:46.171Z,22.30
2022-08-02T23:24:15.995Z,22.30
2022-08-02T23:26:47.697Z,22.30
2022-08-02T23:29:19.454Z,22.20
2022-08-02T23:31:51.227Z,22.20
2022-08-02T23:34:24.622Z,22.20
2022-08-02T23:36:56.388Z,22.20
2022-08-02T23:39:28.236Z,22.20
2022-08-02T23:42:00.017Z,22.20
2022-08-02T23:44:31.825Z,22.20
2022-08-02T23:47:03.665Z,22.20
2022-08-02T23:49:35.449Z,22.20
2022-08-02T23:52:07.307Z,22.20
2022-08-02T23:54:39.898Z,22.30
2022-08-02T23:57:20.362Z,22.30
2022-08-02T23:59:52.915Z,22.20
